Time;durP1;ratioP1;P1;durP2;ratioP2;P2;SDS_P1;SDS_P2;PMS_P1;PMS_P2;Temp;Humidity;BMP_temperature;BMP_pressure;BME280_temperature;BME280_humidity;BME280_pressure;Samples;Min_cycle;Max_cycle;Signal;HPM_P1;HPM_P2
2024/02/10 00:02:10;;;;;;;7.95;1.08;;;9.50;99.90;;;;;;4994118;28;20466;-75
2024/02/10 00:04:38;;;;;;;4.65;1.25;;;9.60;99.90;;;;;;4995751;28;20073;-76
2024/02/10 00:07:07;;;;;;;6.88;1.00;;;9.60;99.90;;;;;;4996313;28;20365;-76
2024/02/10 00:09:35;;;;;;;5.10;1.30;;;9.60;99.90;;;;;;4994692;28;20022;-76
2024/02/10 00:12:01;;;;;;;6.80;1.87;;;9.60;99.90;;;;;;4994160;28;20441;-75
2024/02/10 00:14:27;;;;;;;13.35;1.75;;;9.60;99.90;;;;;;4994320;28;20473;-75
2024/02/10 00:16:53;;;;;;;6.00;0.80;;;9.60;99.90;;;;;;4995403;28;20046;-76
2024/02/10 00:19:20;;;;;;;5.55;1.55;;;9.60;99.90;;;;;;4995372;28;20102;-76
2024/02/10 00:21:46;;;;;;;9.25;1.42;;;9.60;99.90;;;;;;4994105;28;20169;-76
2024/02/10 00:24:12;;;;;;;5.63;0.63;;;9.60;99.90;;;;;;4993785;28;20121;-75
2024/02/10 00:26:38;;;;;;;3.08;0.90;;;9.60;99.90;;;;;;4995572;28;20026;-76
2024/02/10 00:29:04;;;;;;;6.45;1.20;;;9.60;99.90;;;;;;4995755;28;20022;-76
2024/02/10 00:31:31;;;;;;;1.75;0.68;;;9.60;99.90;;;;;;4994930;28;20026;-76
2024/02/10 00:33:57;;;;;;;9.48;1.30;;;9.60;99.90;;;;;;4994028;28;20026;-76
2024/02/10 00:36:23;;;;;;;4.43;0.80;;;9.60;99.90;;;;;;4994901;28;20030;-75
2024/02/10 00:38:49;;;;;;;6.72;0.85;;;9.60;99.90;;;;;;4994727;28;20026;-75
2024/02/10 00:41:16;;;;;;;6.15;1.45;;;9.60;99.90;;;;;;4995404;28;20537;-76
2024/02/10 00:43:43;;;;;;;6.07;0.93;;;9.60;99.90;;;;;;4993582;28;20018;-75
2024/02/10 00:46:17;;;;;;;6.93;1.20;;;9.60;99.90;;;;;;4993351;28;20117;-75
2024/02/10 00:48:46;;;;;;;26.80;2.25;;;9.60;99.90;;;;;;4994742;28;20367;-76
2024/02/10 00:51:12;;;;;;;3.55;1.15;;;9.60;99.90;;;;;;4994781;28;20393;-75
2024/02/10 00:53:39;;;;;;;9.70;0.90;;;9.60;99.90;;;;;;4994796;28;20186;-76
2024/02/10 00:56:12;;;;;;;7.70;0.90;;;9.60;99.90;;;;;;4993398;28;20482;-76
2024/02/10 00:58:40;;;;;;;10.23;1.48;;;9.60;99.90;;;;;;4993148;28;20030;-76
2024/02/10 01:01:12;;;;;;;;;;;9.60;99.90;;;;;;4995177;28;20027;-75
2024/02/10 01:03:46;;;;;;;4.55;0.70;;;9.60;99.90;;;;;;4993193;28;20412;-76
2024/02/10 01:06:19;;;;;;;4.57;0.90;;;9.60;99.90;;;;;;4993006;28;20026;-75
2024/02/10 01:08:48;;;;;;;4.30;0.93;;;9.60;99.90;;;;;;4993054;28;20023;-75
2024/02/10 01:11:19;;;;;;;6.88;1.42;;;10.10;99.90;;;;;;4994267;28;20525;-76
2024/02/10 01:13:45;;;;;;;6.15;0.82;;;9.60;99.90;;;;;;4994660;28;20027;-77
2024/02/10 01:16:17;;;;;;;6.53;1.17;;;9.70;99.90;;;;;;4996068;28;20022;-77
2024/02/10 01:18:50;;;;;;;3.58;0.93;;;9.70;99.90;;;;;;4995423;28;20474;-76
2024/02/10 01:21:17;;;;;;;8.68;1.42;;;9.70;99.90;;;;;;4994378;28;20058;-76
2024/02/10 01:23:46;;;;;;;10.45;1.98;;;9.70;99.90;;;;;;4993641;28;20037;-76
2024/02/10 01:26:17;;;;;;;;;;;9.70;99.90;;;;;;4994501;28;20475;-76
2024/02/10 01:28:44;;;;;;;6.45;1.15;;;9.70;99.90;;;;;;4993525;28;19960;-77
2024/02/10 01:31:11;;;;;;;7.55;1.40;;;9.70;99.90;;;;;;4993021;28;20026;-76
2024/02/10 01:33:41;;;;;;;3.42;0.90;;;9.70;99.90;;;;;;4994442;28;20393;-76
2024/02/10 01:36:09;;;;;;;6.70;0.85;;;9.70;99.90;;;;;;4994456;28;20018;-76
2024/02/10 01:38:44;;;;;;;4.67;0.90;;;9.60;99.90;;;;;;4994329;28;20422;-76
2024/02/10 01:41:11;;;;;;;12.23;2.08;;;9.70;99.90;;;;;;4993281;28;20285;-76
2024/02/10 01:43:41;;;;;;;4.25;0.98;;;9.60;99.90;;;;;;4994597;28;20105;-77
2024/02/10 01:46:09;;;;;;;7.07;1.33;;;9.60;99.90;;;;;;4993577;28;20026;-76
2024/02/10 01:48:35;;;;;;;4.75;1.15;;;9.70;99.90;;;;;;4994113;28;20034;-76
2024/02/10 01:51:01;;;;;;;10.40;1.23;;;9.70;99.90;;;;;;4992992;28;20046;-76
2024/02/10 01:53:28;;;;;;;5.97;0.98;;;9.70;99.90;;;;;;4992827;28;20019;-76
2024/02/10 01:55:54;;;;;;;6.32;1.77;;;9.70;99.90;;;;;;4994161;28;20026;-77
2024/02/10 01:58:22;;;;;;;5.20;1.55;;;9.70;99.90;;;;;;4994354;28;20034;-76
2024/02/10 02:00:48;;;;;;;5.90;1.00;;;9.70;99.90;;;;;;4994379;28;20022;-76
2024/02/10 02:03:15;;;;;;;3.03;0.70;;;9.70;99.90;;;;;;4993897;28;20035;-76
2024/02/10 02:05:41;;;;;;;5.55;0.60;;;9.70;99.90;;;;;;4994539;28;20088;-76
2024/02/10 02:08:08;;;;;;;3.33;1.00;;;9.70;99.90;;;;;;4993263;28;20018;-76
2024/02/10 02:10:34;;;;;;;3.92;1.77;;;9.70;99.90;;;;;;4994774;28;20026;-76
2024/02/10 02:13:00;;;;;;;3.25;0.80;;;9.70;99.90;;;;;;4994354;28;20111;-77
2024/02/10 02:15:30;;;;;;;7.10;1.20;;;9.70;99.90;;;;;;4992749;28;20022;-76
2024/02/10 02:17:58;;;;;;;4.65;1.10;;;9.70;99.90;;;;;;4993149;28;20029;-76
2024/02/10 02:20:25;;;;;;;4.40;0.80;;;9.70;99.90;;;;;;4994392;28;20029;-76
2024/02/10 02:22:53;;;;;;;1.98;0.77;;;9.70;99.90;;;;;;4993807;28;20510;-76
2024/02/10 02:25:20;;;;;;;4.63;1.23;;;9.70;99.90;;;;;;4996201;28;20076;-76
2024/02/10 02:27:46;;;;;;;6.55;1.00;;;9.70;99.90;;;;;;4996247;28;20023;-76
2024/02/10 02:30:12;;;;;;;1.55;0.65;;;9.70;99.90;;;;;;4996163;28;20026;-76
2024/02/10 02:32:38;;;;;;;5.75;1.27;;;9.70;99.90;;;;;;4996414;28;20189;-77
2024/02/10 02:35:10;;;;;;;8.55;1.23;;;9.70;99.90;;;;;;4997165;28;20479;-76
2024/02/10 02:37:37;;;;;;;7.53;1.15;;;9.70;99.90;;;;;;4997534;28;20023;-76
2024/02/10 02:40:05;;;;;;;2.75;1.17;;;9.70;99.90;;;;;;4996002;28;20398;-76
2024/02/10 02:42:31;;;;;;;3.17;0.80;;;9.80;99.90;;;;;;4997245;28;20095;-76
2024/02/10 02:44:56;;;;;;;3.00;0.68;;;9.70;99.90;;;;;;4997099;28;20511;-76
2024/02/10 02:47:22;;;;;;;4.55;0.70;;;9.70;99.90;;;;;;4997592;28;20488;-76
2024/02/10 02:49:48;;;;;;;3.75;0.73;;;9.70;99.90;;;;;;4997642;28;20517;-76
2024/02/10 02:52:14;;;;;;;2.35;0.63;;;9.70;99.90;;;;;;4997380;28;20438;-76
2024/02/10 02:54:39;;;;;;;3.97;0.95;;;10.30;99.90;;;;;;4997018;28;20037;-76
2024/02/10 02:57:05;;;;;;;3.65;0.82;;;9.70;99.90;;;;;;4997176;28;20026;-76
2024/02/10 02:59:30;;;;;;;4.30;1.00;;;9.80;99.90;;;;;;4996159;28;20054;-76
2024/02/10 03:01:57;;;;;;;2.13;0.63;;;9.80;99.90;;;;;;4997029;28;20031;-76
2024/02/10 03:04:23;;;;;;;5.55;1.08;;;9.80;99.90;;;;;;4995614;28;20030;-76
2024/02/10 03:06:50;;;;;;;5.07;0.93;;;9.80;99.90;;;;;;4995638;28;20418;-76
2024/02/10 03:09:15;;;;;;;4.53;1.10;;;9.80;99.90;;;;;;4995915;28;20026;-76
2024/02/10 03:11:41;;;;;;;5.18;0.68;;;9.80;99.90;;;;;;4997607;28;20056;-76
2024/02/10 03:14:07;;;;;;;4.03;0.80;;;9.80;99.90;;;;;;4997052;28;20033;-76
2024/02/10 03:16:33;;;;;;;3.88;1.17;;;9.80;99.90;;;;;;4997439;28;20105;-77
2024/02/10 03:19:04;;;;;;;5.13;1.08;;;9.80;99.90;;;;;;4995457;28;20042;-76
2024/02/10 03:21:35;;;;;;;4.47;1.08;;;9.80;99.90;;;;;;4997283;28;20026;-76
2024/02/10 03:24:05;;;;;;;5.10;0.57;;;9.70;99.90;;;;;;4995882;28;20022;-76
2024/02/10 03:26:32;;;;;;;7.45;1.08;;;9.80;99.90;;;;;;4995834;28;20034;-76
2024/02/10 03:29:01;;;;;;;2.42;0.70;;;9.70;99.90;;;;;;4996477;28;20031;-76
2024/02/10 03:31:27;;;;;;;5.13;1.40;;;9.60;99.90;;;;;;4997488;28;20022;-76
2024/02/10 03:33:52;;;;;;;4.90;0.68;;;9.60;99.90;;;;;;4995777;28;20026;-76
2024/02/10 03:36:18;;;;;;;4.40;0.52;;;;;;;;;;4994931;28;20556;-76
2024/02/10 03:38:44;;;;;;;2.63;0.85;;;9.50;99.90;;;;;;4995280;28;20030;-76
2024/02/10 03:41:13;;;;;;;3.90;0.85;;;9.50;99.90;;;;;;4996905;28;20390;-77
2024/02/10 03:43:39;;;;;;;5.38;1.20;;;9.40;99.90;;;;;;4996590;28;20026;-76
2024/02/10 03:46:05;;;;;;;6.50;0.95;;;9.30;99.90;;;;;;4996826;28;20036;-76
2024/02/10 03:48:31;;;;;;;3.65;0.40;;;;;;;;;;4996544;28;20113;-77
2024/02/10 03:50:56;;;;;;;6.93;0.90;;;9.30;99.90;;;;;;4996612;28;20026;-77
2024/02/10 03:53:24;;;;;;;3.50;0.70;;;9.30;99.90;;;;;;4996066;28;20475;-76
2024/02/10 03:55:51;;;;;;;2.88;0.50;;;;;;;;;;4995160;28;20117;-77
2024/02/10 03:58:17;;;;;;;6.05;0.77;;;9.20;99.90;;;;;;4994479;28;20049;-76
2024/02/10 04:00:43;;;;;;;7.72;1.42;;;9.30;99.90;;;;;;4996435;28;20050;-76
2024/02/10 04:03:09;;;;;;;4.32;0.95;;;9.30;99.90;;;;;;4996693;28;20041;-76
2024/02/10 04:05:38;;;;;;;4.70;0.95;;;9.30;99.90;;;;;;4996056;28;20022;-76
2024/02/10 04:08:04;;;;;;;;;;;9.30;99.90;;;;;;4996540;28;20033;-76
2024/02/10 04:10:30;;;;;;;3.40;0.88;;;9.40;99.90;;;;;;4996026;28;20000;-76
2024/02/10 04:12:56;;;;;;;2.17;0.70;;;9.40;99.90;;;;;;4994491;28;20022;-76
2024/02/10 04:15:22;;;;;;;4.07;1.02;;;9.50;99.90;;;;;;4994393;28;20443;-76
2024/02/10 04:17:53;;;;;;;2.20;0.75;;;9.50;99.90;;;;;;4995614;28;20493;-76
2024/02/10 04:20:20;;;;;;;2.40;0.70;;;9.60;99.90;;;;;;4995300;28;20436;-76
2024/02/10 04:22:46;;;;;;;5.72;1.00;;;9.60;99.90;;;;;;4995913;28;20018;-76
2024/02/10 04:25:14;;;;;;;2.40;0.50;;;9.60;99.90;;;;;;4994021;28;20026;-76
2024/02/10 04:27:40;;;;;;;9.10;1.38;;;9.60;99.90;;;;;;4996046;28;20019;-75
2024/02/10 04:30:07;;;;;;;3.10;0.60;;;9.60;99.90;;;;;;4996344;28;20033;-76
2024/02/10 04:32:33;;;;;;;2.83;0.85;;;9.70;99.90;;;;;;4995890;28;20085;-76
2024/02/10 04:34:59;;;;;;;1.95;0.40;;;9.60;99.90;;;;;;4993968;28;20459;-76
2024/02/10 04:37:25;;;;;;;2.75;0.90;;;9.70;99.90;;;;;;4994995;28;20023;-76
2024/02/10 04:39:50;;;;;;;4.03;0.65;;;9.70;99.90;;;;;;4993799;28;20605;-76
2024/02/10 04:42:16;;;;;;;3.28;0.50;;;9.60;99.90;;;;;;4995140;28;20026;-77
2024/02/10 04:44:48;;;;;;;3.30;0.70;;;9.70;99.90;;;;;;4995666;28;20080;-75
2024/02/10 04:47:18;;;;;;;2.60;0.40;;;9.70;99.90;;;;;;4993440;28;20080;-76
2024/02/10 04:49:43;;;;;;;4.50;0.82;;;9.70;99.90;;;;;;4992917;28;20026;-76
2024/02/10 04:52:09;;;;;;;4.72;1.17;;;9.60;99.90;;;;;;4995071;28;20034;-76
2024/02/10 04:54:35;;;;;;;3.10;0.60;;;9.60;99.90;;;;;;4993232;28;20021;-76
2024/02/10 04:57:00;;;;;;;4.82;0.63;;;9.60;99.90;;;;;;4994461;28;20541;-76
2024/02/10 04:59:26;;;;;;;3.47;0.75;;;9.60;99.90;;;;;;4993339;28;20022;-76
2024/02/10 05:01:53;;;;;;;3.17;0.57;;;9.60;99.90;;;;;;4995915;28;20038;-75
2024/02/10 05:04:18;;;;;;;3.38;0.50;;;9.60;99.90;;;;;;4994901;28;20030;-77
2024/02/10 05:06:45;;;;;;;2.38;0.70;;;9.60;99.90;;;;;;4993610;28;20026;-77
2024/02/10 05:09:17;;;;;;;3.78;0.75;;;9.60;99.90;;;;;;4993340;28;20501;-76
2024/02/10 05:11:43;;;;;;;3.38;0.47;;;9.60;99.90;;;;;;4995506;28;20061;-77
2024/02/10 05:14:09;;;;;;;6.63;1.20;;;9.60;99.90;;;;;;4994528;28;20026;-76
2024/02/10 05:16:36;;;;;;;1.95;0.50;;;9.50;99.90;;;;;;4994493;28;20026;-77
2024/02/10 05:19:01;;;;;;;1.33;0.68;;;9.60;99.90;;;;;;4993826;28;20168;-76
2024/02/10 05:21:32;;;;;;;5.75;0.93;;;9.60;99.90;;;;;;4993900;28;20022;-76
2024/02/10 05:24:10;;;;;;;4.20;1.10;;;9.60;99.90;;;;;;4993913;28;20501;-77
2024/02/10 05:26:38;;;;;;;2.03;0.80;;;9.60;99.90;;;;;;4994529;28;20022;-76
2024/02/10 05:29:07;;;;;;;2.43;0.80;;;9.60;99.90;;;;;;4993426;28;20026;-76
2024/02/10 05:31:36;;;;;;;;;;;9.60;99.90;;;;;;4993972;28;20030;-76
2024/02/10 05:34:02;;;;;;;;;;;9.50;99.90;;;;;;4995627;28;20289;-76
2024/02/10 05:36:28;;;;;;;1.60;0.75;;;9.60;99.90;;;;;;4993175;28;19906;-76
2024/02/10 05:38:53;;;;;;;2.40;0.52;;;9.60;99.90;;;;;;4993227;28;20026;-77
2024/02/10 05:41:19;;;;;;;4.80;0.52;;;9.60;99.90;;;;;;4994718;28;20027;-76
2024/02/10 05:43:45;;;;;;;5.93;0.45;;;9.60;99.90;;;;;;4994743;28;20030;-76
2024/02/10 05:46:13;;;;;;;6.95;1.50;;;9.60;99.90;;;;;;4994557;28;20027;-76
2024/02/10 05:48:39;;;;;;;8.15;1.17;;;9.60;99.90;;;;;;4994389;28;20038;-77
2024/02/10 05:51:06;;;;;;;1.63;0.20;;;9.60;99.90;;;;;;4993047;28;20019;-77
2024/02/10 05:53:31;;;;;;;3.55;0.65;;;9.60;99.90;;;;;;4993252;28;20029;-77
2024/02/10 05:55:57;;;;;;;3.90;0.50;;;9.60;99.90;;;;;;4992888;28;20027;-76
2024/02/10 05:58:23;;;;;;;1.80;0.35;;;9.50;99.90;;;;;;4994871;28;20082;-76
2024/02/10 06:00:52;;;;;;;2.15;0.38;;;9.60;99.90;;;;;;4997150;28;20030;-76
2024/02/10 06:03:18;;;;;;;1.30;0.30;;;9.50;99.90;;;;;;4998266;28;20030;-76
2024/02/10 06:05:44;;;;;;;3.67;0.50;;;9.60;99.90;;;;;;4998810;28;20466;-76
2024/02/10 06:08:10;;;;;;;2.25;0.85;;;9.60;99.90;;;;;;4998295;28;20031;-77
2024/02/10 06:10:36;;;;;;;1.70;0.50;;;9.50;99.90;;;;;;4996915;28;20026;-77
2024/02/10 06:13:02;;;;;;;0.80;0.60;;;9.50;99.90;;;;;;4998473;28;20030;-76
2024/02/10 06:15:29;;;;;;;6.18;0.60;;;9.50;99.90;;;;;;4997960;28;20196;-76
2024/02/10 06:17:56;;;;;;;6.45;0.55;;;9.50;99.90;;;;;;4998114;28;20019;-76
2024/02/10 06:20:25;;;;;;;1.95;0.80;;;9.50;99.90;;;;;;4996475;28;20406;-76
2024/02/10 06:22:52;;;;;;;;;;;9.50;99.90;;;;;;4997026;28;20069;-76
2024/02/10 06:25:26;;;;;;;3.20;0.65;;;9.50;99.90;;;;;;4996724;28;19906;-77
2024/02/10 06:27:54;;;;;;;1.70;0.55;;;9.50;99.90;;;;;;4996363;28;20026;-76
2024/02/10 06:30:21;;;;;;;3.42;0.65;;;9.50;99.90;;;;;;4997490;28;20094;-76
2024/02/10 06:32:47;;;;;;;4.05;0.98;;;9.50;99.90;;;;;;4996347;28;20046;-77
2024/02/10 06:35:14;;;;;;;4.00;0.75;;;9.50;99.90;;;;;;4997310;28;20509;-76
2024/02/10 06:37:46;;;;;;;2.45;0.32;;;9.50;99.90;;;;;;4996041;28;20050;-76
2024/02/10 06:40:14;;;;;;;1.88;0.47;;;9.50;99.90;;;;;;4996157;28;20034;-76
2024/02/10 06:42:46;;;;;;;4.07;0.80;;;9.50;99.90;;;;;;4997378;28;20023;-76
2024/02/10 06:45:14;;;;;;;1.50;0.10;;;9.50;99.90;;;;;;4997443;28;20053;-76
2024/02/10 06:47:44;;;;;;;1.90;0.50;;;9.50;99.90;;;;;;4997197;28;20022;-76
2024/02/10 06:50:13;;;;;;;6.78;0.20;;;9.50;99.90;;;;;;4996140;28;20026;-76
2024/02/10 06:52:42;;;;;;;2.25;0.77;;;9.50;99.90;;;;;;4995758;28;20022;-77
2024/02/10 06:55:12;;;;;;;1.60;0.30;;;9.40;99.90;;;;;;4996042;28;20030;-76
2024/02/10 06:57:41;;;;;;;2.63;0.40;;;9.40;99.90;;;;;;4996769;28;20035;-76
2024/02/10 07:00:07;;;;;;;1.52;0.50;;;9.50;99.90;;;;;;4995699;28;20030;-76
2024/02/10 07:02:33;;;;;;;4.10;0.45;;;9.40;99.90;;;;;;4996980;28;20026;-77
2024/02/10 07:04:58;;;;;;;1.80;0.38;;;9.40;99.90;;;;;;4996971;28;20095;-76
2024/02/10 07:07:27;;;;;;;4.85;0.80;;;9.40;99.90;;;;;;4996754;28;20449;-75
2024/02/10 07:09:58;;;;;;;1.25;0.30;;;9.30;99.90;;;;;;4997568;28;20026;-76
2024/02/10 07:12:27;;;;;;;3.92;1.13;;;9.30;99.90;;;;;;4996752;28;20030;-76
2024/02/10 07:14:54;;;;;;;1.33;0.30;;;9.30;99.90;;;;;;4995514;28;20022;-76
2024/02/10 07:17:20;;;;;;;2.85;0.10;;;9.30;99.90;;;;;;4997350;28;20026;-77
2024/02/10 07:19:51;;;;;;;4.13;0.40;;;9.30;99.90;;;;;;4995233;28;20110;-76
2024/02/10 07:22:17;;;;;;;7.97;1.35;;;9.30;99.90;;;;;;4997613;28;20386;-76
2024/02/10 07:24:46;;;;;;;4.35;1.20;;;9.30;99.90;;;;;;4995603;28;20030;-77
2024/02/10 07:27:22;;;;;;;1.50;0.50;;;9.30;99.90;;;;;;4996535;28;20030;-76
2024/02/10 07:29:48;;;;;;;2.83;0.50;;;9.20;99.90;;;;;;4996889;28;20049;-77
2024/02/10 07:32:14;;;;;;;3.25;0.50;;;9.30;99.90;;;;;;4995654;28;20026;-76
2024/02/10 07:34:40;;;;;;;2.35;0.25;;;9.60;99.90;;;;;;4996151;28;20085;-76
2024/02/10 07:37:07;;;;;;;3.35;0.73;;;9.30;99.90;;;;;;4997347;28;20446;-76
2024/02/10 07:39:35;;;;;;;1.42;0.35;;;9.30;99.90;;;;;;4994748;28;20084;-77
2024/02/10 07:42:01;;;;;;;3.90;0.63;;;9.30;99.90;;;;;;4995353;28;20118;-76
2024/02/10 07:44:27;;;;;;;1.38;0.30;;;9.30;99.90;;;;;;4996441;28;20100;-76
2024/02/10 07:46:57;;;;;;;0.98;0.20;;;9.30;99.90;;;;;;4995475;28;20030;-76
2024/02/10 07:49:22;;;;;;;1.67;0.55;;;9.40;99.90;;;;;;4995953;28;20493;-76
2024/02/10 07:51:48;;;;;;;2.30;0.63;;;9.40;99.90;;;;;;4994923;28;20112;-76
2024/02/10 07:54:17;;;;;;;2.80;0.32;;;9.40;99.90;;;;;;4996582;28;20026;-76
2024/02/10 07:56:43;;;;;;;;;;;9.40;99.90;;;;;;4994942;28;20402;-76
2024/02/10 07:59:08;;;;;;;1.05;0.40;;;9.50;99.90;;;;;;4996316;28;19916;-77
2024/02/10 08:01:34;;;;;;;2.13;0.82;;;9.50;99.90;;;;;;4995958;28;20023;-77
2024/02/10 08:04:04;;;;;;;7.25;0.95;;;9.50;99.90;;;;;;4994757;28;20018;-77
2024/02/10 08:06:32;;;;;;;1.60;0.50;;;9.60;99.90;;;;;;4995478;28;20058;-76
2024/02/10 08:09:00;;;;;;;1.48;0.43;;;9.60;99.90;;;;;;4995574;28;20045;-76
2024/02/10 08:11:27;;;;;;;1.95;0.82;;;9.70;99.90;;;;;;4995656;28;20398;-76
2024/02/10 08:13:53;;;;;;;5.38;0.68;;;9.80;99.90;;;;;;4994159;28;20035;-76
2024/02/10 08:16:21;;;;;;;3.28;0.60;;;9.80;99.90;;;;;;4995660;28;20027;-76
2024/02/10 08:18:50;;;;;;;3.75;0.52;;;9.90;99.90;;;;;;4995140;28;20022;-76
2024/02/10 08:21:21;;;;;;;3.08;0.50;;;9.90;99.90;;;;;;4995065;28;20018;-76
2024/02/10 08:23:52;;;;;;;5.78;1.10;;;9.90;99.90;;;;;;4998443;28;20023;-80
2024/02/10 08:26:20;;;;;;;2.65;1.08;;;9.90;99.90;;;;;;4998390;28;20026;-80
2024/02/10 08:28:51;;;;;;;4.18;0.80;;;9.90;99.90;;;;;;4998911;28;20037;-80
2024/02/10 08:31:18;;;;;;;3.20;0.90;;;9.90;99.90;;;;;;4998281;28;20482;-80
2024/02/10 08:33:50;;;;;;;3.78;0.90;;;9.90;99.90;;;;;;4998694;28;20011;-79
2024/02/10 08:36:16;;;;;;;2.85;0.73;;;10.00;99.90;;;;;;4999976;28;20116;-80
2024/02/10 08:38:43;;;;;;;2.92;1.13;;;10.00;99.90;;;;;;4997340;28;20029;-79
2024/02/10 08:41:10;;;;;;;4.45;0.77;;;10.00;99.90;;;;;;4998038;28;20037;-79
2024/02/10 08:43:36;;;;;;;5.38;0.38;;;10.00;99.90;;;;;;4998646;28;20109;-80
2024/02/10 08:46:03;;;;;;;4.55;0.95;;;10.00;99.90;;;;;;4999323;28;20060;-79
2024/02/10 08:48:29;;;;;;;1.90;0.50;;;;;;;;;;4998585;28;20102;-80
2024/02/10 08:50:55;;;;;;;3.20;1.33;;;10.00;99.90;;;;;;4998441;28;20030;-80
2024/02/10 08:53:22;;;;;;;5.45;0.75;;;10.10;99.90;;;;;;4998888;28;20109;-80
2024/02/10 08:55:49;;;;;;;4.53;0.80;;;10.10;99.90;;;;;;4998699;28;20033;-80
2024/02/10 08:58:20;;;;;;;5.60;0.88;;;10.20;99.90;;;;;;4998049;28;20036;-80
2024/02/10 09:00:46;;;;;;;2.60;1.08;;;10.20;99.90;;;;;;4999379;28;20056;-80
2024/02/10 09:03:14;;;;;;;2.72;0.70;;;10.30;99.90;;;;;;5001103;28;20455;-80
2024/02/10 09:05:41;;;;;;;3.63;1.05;;;10.40;99.90;;;;;;4999555;28;20026;-80
2024/02/10 09:08:07;;;;;;;4.97;1.27;;;10.40;99.90;;;;;;4999950;28;20025;-81
2024/02/10 09:10:33;;;;;;;4.40;1.20;;;10.50;99.90;;;;;;4999101;28;20497;-81
2024/02/10 09:12:59;;;;;;;7.40;1.13;;;10.40;99.90;;;;;;4999038;28;20027;-81
2024/02/10 09:15:25;;;;;;;5.22;0.95;;;10.50;99.90;;;;;;4998860;28;20009;-81
2024/02/10 09:17:51;;;;;;;2.63;0.90;;;10.60;99.90;;;;;;4999903;28;20011;-80
2024/02/10 09:20:17;;;;;;;3.92;0.98;;;10.70;99.90;;;;;;4997954;28;20022;-80
2024/02/10 09:22:45;;;;;;;5.32;0.95;;;10.70;99.90;;;;;;4999586;28;20109;-80
2024/02/10 09:25:11;;;;;;;3.95;0.90;;;10.80;99.90;;;;;;4998489;28;20092;-80
2024/02/10 09:27:36;;;;;;;1.45;0.70;;;10.80;99.90;;;;;;4998964;28;20022;-80
2024/02/10 09:30:05;;;;;;;3.30;1.10;;;10.80;99.90;;;;;;4999048;28;20066;-79
2024/02/10 09:32:31;;;;;;;;;;;10.90;99.90;;;;;;4999672;28;20013;-80
2024/02/10 09:34:57;;;;;;;3.47;1.63;;;11.00;99.90;;;;;;4999832;28;19906;-80
2024/02/10 09:37:23;;;;;;;3.90;1.08;;;11.00;99.90;;;;;;4999940;28;20490;-80
2024/02/10 09:39:48;;;;;;;3.42;1.23;;;11.00;99.90;;;;;;4998088;28;20029;-80
2024/02/10 09:42:28;;;;;;;4.22;1.40;;;11.00;99.90;;;;;;4998129;28;20026;-79
2024/02/10 09:44:54;;;;;;;5.55;1.38;;;11.10;99.90;;;;;;4995927;28;20438;-79
2024/02/10 09:47:19;;;;;;;3.58;0.93;;;11.10;99.90;;;;;;4997070;28;20065;-80
2024/02/10 09:49:45;;;;;;;2.67;1.27;;;11.10;99.90;;;;;;4999016;28;20098;-80
2024/02/10 09:52:11;;;;;;;5.65;1.60;;;11.10;99.90;;;;;;4998598;28;20492;-80
2024/02/10 09:54:39;;;;;;;3.35;1.27;;;;;;;;;;4998750;28;20026;-80
2024/02/10 09:57:08;;;;;;;5.40;1.27;;;11.10;99.90;;;;;;4998491;28;20098;-80
2024/02/10 09:59:34;;;;;;;3.38;1.55;;;11.10;99.90;;;;;;4997715;28;20478;-80
2024/02/10 10:02:02;;;;;;;5.68;1.35;;;11.10;99.90;;;;;;4999004;28;20030;-80
2024/02/10 10:04:28;;;;;;;5.60;1.65;;;11.10;99.90;;;;;;4998834;28;20077;-80
2024/02/10 10:06:56;;;;;;;2.55;1.30;;;11.10;99.90;;;;;;4999306;28;20030;-80
2024/02/10 10:09:21;;;;;;;3.55;1.30;;;11.20;99.90;;;;;;4998272;28;20026;-80
2024/02/10 10:11:50;;;;;;;2.28;1.60;;;11.30;99.90;;;;;;4999238;28;20090;-80
2024/02/10 10:14:19;;;;;;;5.15;1.15;;;11.30;99.90;;;;;;4998690;28;20364;-81
2024/02/10 10:16:56;;;;;;;;;;;11.40;99.90;;;;;;4997730;28;20018;-81
2024/02/10 10:19:22;;;;;;;3.88;1.42;;;11.40;99.90;;;;;;4997702;28;19917;-80
2024/02/10 10:21:49;;;;;;;2.78;1.25;;;11.40;99.90;;;;;;4997976;28;20026;-80
2024/02/10 10:24:15;;;;;;;3.85;1.35;;;11.40;99.90;;;;;;4997305;28;20478;-80
2024/02/10 10:26:42;;;;;;;7.13;1.52;;;11.50;99.90;;;;;;4997857;28;20398;-80
2024/02/10 10:29:10;;;;;;;5.22;1.10;;;11.50;99.90;;;;;;4998559;28;20138;-80
2024/02/10 10:31:38;;;;;;;3.58;1.50;;;11.60;99.90;;;;;;4999348;28;20027;-80
2024/02/10 10:34:06;;;;;;;4.72;1.30;;;11.60;99.90;;;;;;4998369;28;20018;-80
2024/02/10 10:36:32;;;;;;;2.63;1.20;;;11.70;99.90;;;;;;4997875;28;20028;-80
2024/02/10 10:39:01;;;;;;;3.20;1.55;;;11.80;99.90;;;;;;4999718;28;20081;-80
2024/02/10 10:41:26;;;;;;;;;;;11.80;99.90;;;;;;4998143;28;20022;-80
2024/02/10 10:43:58;;;;;;;3.28;1.60;;;11.80;99.90;;;;;;4997215;28;19929;-80
2024/02/10 10:46:24;;;;;;;3.58;1.38;;;11.90;99.90;;;;;;4999000;28;20105;-79
2024/02/10 10:48:50;;;;;;;3.28;1.20;;;11.90;99.90;;;;;;5002271;28;20101;-80
2024/02/10 10:51:25;;;;;;;5.38;1.50;;;12.10;99.90;;;;;;5001142;28;20062;-79
2024/02/10 10:53:51;;;;;;;5.38;1.55;;;12.10;99.90;;;;;;5001580;28;20022;-77
2024/02/10 10:56:23;;;;;;;3.13;1.20;;;12.10;99.90;;;;;;4996741;28;20027;-77
2024/02/10 10:58:57;;;;;;;8.45;2.10;;;12.10;99.90;;;;;;4995652;28;20034;-77
2024/02/10 11:01:25;;;;;;;3.20;1.38;;;12.20;99.90;;;;;;4995738;28;20398;-77
2024/02/10 11:04:01;;;;;;;2.70;1.05;;;12.40;99.90;;;;;;4995447;28;20030;-76
2024/02/10 11:06:32;;;;;;;3.00;1.05;;;12.50;99.90;;;;;;4996449;28;20026;-77
2024/02/10 11:08:58;;;;;;;2.50;1.05;;;12.50;99.90;;;;;;4996772;28;20025;-77
2024/02/10 11:11:24;;;;;;;3.92;1.80;;;12.60;99.90;;;;;;4996554;28;20030;-76
2024/02/10 11:13:50;;;;;;;4.20;0.93;;;;;;;;;;4996584;28;20501;-76
2024/02/10 11:16:15;;;;;;;3.35;1.35;;;12.60;99.90;;;;;;4996713;28;20030;-76
2024/02/10 11:18:57;;;;;;;5.68;1.48;;;12.60;99.90;;;;;;4996159;28;20018;-76
2024/02/10 11:21:30;;;;;;;3.97;0.90;;;12.70;99.90;;;;;;4995074;28;20080;-76
2024/02/10 11:24:07;;;;;;;3.67;1.25;;;12.60;99.90;;;;;;4995031;28;20034;-76
2024/02/10 11:26:38;;;;;;;2.20;0.88;;;12.70;99.90;;;;;;4995556;28;20026;-76
2024/02/10 11:29:15;;;;;;;2.05;1.00;;;12.80;99.90;;;;;;4996785;28;20049;-76
2024/02/10 11:31:41;;;;;;;5.60;1.42;;;12.80;99.90;;;;;;4996091;28;20026;-76
2024/02/10 11:34:19;;;;;;;5.32;1.75;;;12.90;99.90;;;;;;4995288;28;20093;-76
2024/02/10 11:36:56;;;;;;;3.78;1.23;;;12.90;99.90;;;;;;4995961;28;20022;-76
2024/02/10 11:39:24;;;;;;;2.75;0.90;;;13.00;99.90;;;;;;4995018;28;20053;-77
2024/02/10 11:42:00;;;;;;;6.20;1.40;;;13.00;99.90;;;;;;4996265;28;20102;-77
2024/02/10 11:44:29;;;;;;;6.00;1.17;;;13.00;99.90;;;;;;4995376;28;20409;-76
2024/02/10 11:46:56;;;;;;;2.30;1.38;;;13.00;99.90;;;;;;4995233;28;20084;-76
2024/02/10 11:49:23;;;;;;;4.13;1.20;;;13.00;99.90;;;;;;4995355;28;20375;-78
2024/02/10 11:51:53;;;;;;;4.38;1.05;;;13.10;99.90;;;;;;5008380;28;20052;-79
2024/02/10 11:54:18;;;;;;;4.13;1.70;;;13.20;99.90;;;;;;5013961;28;20026;-79
2024/02/10 11:56:50;;;;;;;2.72;0.70;;;13.30;99.90;;;;;;5011309;28;20085;-79
2024/02/10 11:59:16;;;;;;;3.10;1.50;;;13.40;99.90;;;;;;5011184;28;20041;-78
2024/02/10 12:01:42;;;;;;;10.10;1.90;;;13.50;99.90;;;;;;5009501;28;20049;-78
2024/02/10 12:04:17;;;;;;;6.05;0.85;;;13.60;99.90;;;;;;5007321;28;20026;-78
2024/02/10 12:06:48;;;;;;;2.40;0.88;;;13.80;99.90;;;;;;5007213;28;20090;-78
2024/02/10 12:09:15;;;;;;;3.95;1.20;;;13.90;99.90;;;;;;5008350;28;20034;-78
2024/02/10 12:11:40;;;;;;;4.32;0.93;;;13.90;99.90;;;;;;5008978;28;20026;-78
2024/02/10 12:14:13;;;;;;;2.70;1.20;;;14.00;99.90;;;;;;5006437;28;20026;-79
2024/02/10 12:16:44;;;;;;;5.40;1.25;;;14.10;99.90;;;;;;5002641;28;20478;-80
2024/02/10 12:19:10;;;;;;;2.30;1.00;;;14.10;99.90;;;;;;5009811;28;20060;-78
2024/02/10 12:21:41;;;;;;;1.25;0.63;;;14.20;99.90;;;;;;5011163;28;20030;-78
2024/02/10 12:24:12;;;;;;;2.97;0.90;;;14.30;99.90;;;;;;5010840;28;20049;-79
2024/02/10 12:26:38;;;;;;;1.67;0.80;;;14.30;99.90;;;;;;5010506;28;20030;-79
2024/02/10 12:29:10;;;;;;;3.22;0.60;;;14.40;99.90;;;;;;5010371;28;20022;-79
2024/02/10 12:31:38;;;;;;;3.55;0.98;;;14.40;99.90;;;;;;5009317;28;20117;-79
2024/02/10 12:34:05;;;;;;;3.13;0.73;;;14.30;99.90;;;;;;5009350;28;20018;-79
2024/02/10 12:36:33;;;;;;;3.17;0.82;;;14.30;99.90;;;;;;5009859;28;20030;-79
2024/02/10 12:39:05;;;;;;;2.70;0.60;;;14.30;99.90;;;;;;5008839;28;20053;-79
2024/02/10 12:41:31;;;;;;;2.55;0.52;;;14.30;99.90;;;;;;5011240;28;20026;-79
2024/02/10 12:43:59;;;;;;;3.03;1.13;;;14.20;99.90;;;;;;5010609;28;20059;-79
2024/02/10 12:46:25;;;;;;;2.60;0.80;;;14.20;99.90;;;;;;5010380;28;20410;-79
2024/02/10 12:48:51;;;;;;;3.10;0.50;;;14.20;99.90;;;;;;5009517;28;20030;-79
2024/02/10 12:51:17;;;;;;;2.95;0.88;;;14.20;99.90;;;;;;5009369;28;20065;-79
2024/02/10 12:53:43;;;;;;;3.78;0.80;;;14.20;99.90;;;;;;5010813;28;20077;-79
2024/02/10 12:56:10;;;;;;;3.33;1.17;;;14.10;99.90;;;;;;5010480;28;20141;-79
2024/02/10 12:58:36;;;;;;;2.88;1.15;;;14.10;99.90;;;;;;5007412;28;20023;-79
2024/02/10 13:01:02;;;;;;;5.60;1.20;;;14.10;99.90;;;;;;5008812;28;20022;-79